createdAt,value
2022-12-08T00:01:28.611Z,99260.41
2022-12-08T00:03:56.259Z,99252.00
2022-12-08T00:06:55.879Z,99244.44
2022-12-08T00:09:39.171Z,99240.25
2022-12-08T00:12:17.792Z,99235.22
2022-12-08T00:14:47.924Z,99229.34
2022-12-08T00:17:17.265Z,99229.34
2022-12-08T00:19:47.343Z,99222.66
2022-12-08T00:22:15.196Z,99223.47
2022-12-08T00:24:45.433Z,99224.34
2022-12-08T00:27:16.106Z,99218.47
2022-12-08T00:29:46.113Z,99220.16
2022-12-08T00:32:13.221Z,99211.72
2022-12-08T00:34:40.055Z,99217.63
2022-12-08T00:37:06.824Z,99205.88
2022-12-08T00:39:33.705Z,99206.72
2022-12-08T00:42:12.456Z,99199.16
2022-12-08T00:44:40.807Z,99204.22
2022-12-08T00:47:07.748Z,99202.50
2022-12-08T00:49:34.505Z,99196.66
2022-12-08T00:52:01.288Z,99197.47
2022-12-08T00:54:28.063Z,99185.75
2022-12-08T00:56:54.774Z,99198.34
2022-12-08T00:59:21.628Z,99191.59
2022-12-08T01:01:49.079Z,99187.41
2022-12-08T01:04:18.681Z,99183.25
2022-12-08T01:06:46.793Z,99183.25
2022-12-08T01:09:16.161Z,99184.91
2022-12-08T01:11:44.499Z,99186.59
2022-12-08T01:14:12.024Z,99184.06
2022-12-08T01:16:41.318Z,99184.06
2022-12-08T01:19:12.873Z,99184.94
2022-12-08T01:21:41.197Z,99184.06
2022-12-08T01:24:12.213Z,99180.72
2022-12-08T01:26:38.964Z,99180.72
2022-12-08T01:29:05.773Z,99170.63
2022-12-08T01:31:32.830Z,99165.59
2022-12-08T01:33:59.595Z,99171.47
2022-12-08T01:36:30.306Z,99177.38
2022-12-08T01:39:00.714Z,99175.66
2022-12-08T01:41:32.114Z,99174.00
2022-12-08T01:44:24.654Z,99176.53
2022-12-08T01:46:54.037Z,99181.53
2022-12-08T01:49:30.370Z,99180.72
2022-12-08T01:52:12.420Z,99183.22
2022-12-08T01:55:10.877Z,99176.50
2022-12-08T01:57:48.520Z,99171.47
2022-12-08T02:00:20.327Z,99161.38
2022-12-08T02:02:57.736Z,99162.22
2022-12-08T02:05:31.024Z,99158.03
2022-12-08T02:08:01.217Z,99155.50
2022-12-08T02:10:30.933Z,99153.81
2022-12-08T02:13:00.369Z,99156.34
2022-12-08T02:16:16.749Z,99156.34
2022-12-08T02:19:30.731Z,99151.31
2022-12-08T02:22:06.718Z,99152.13
2022-12-08T02:25:20.952Z,99149.63
2022-12-08T02:28:44.745Z,99142.06
2022-12-08T02:31:17.331Z,99143.75
2022-12-08T02:34:28.047Z,99137.88
2022-12-08T02:37:26.763Z,99131.16
2022-12-08T02:40:02.203Z,99125.25
2022-12-08T02:42:42.073Z,99132.00
2022-12-08T02:45:50.287Z,99130.31
2022-12-08T02:48:17.335Z,99121.06
2022-12-08T02:50:44.332Z,99126.94
2022-12-08T02:56:12.694Z,99107.59
2022-12-08T02:59:00.399Z,99109.31
2022-12-08T03:02:09.859Z,99105.09
2022-12-08T03:04:48.106Z,99103.41
2022-12-08T03:07:26.797Z,99096.69
2022-12-08T03:10:33.395Z,99098.38
2022-12-08T03:13:17.133Z,99097.53
2022-12-08T03:15:48.364Z,99101.72
2022-12-08T03:18:18.885Z,99092.47
2022-12-08T03:20:47.972Z,99086.63
2022-12-08T03:23:18.784Z,99079.06
2022-12-08T03:25:59.640Z,99084.09
2022-12-08T03:28:26.583Z,99068.97
2022-12-08T03:30:59.210Z,99081.59
2022-12-08T03:33:36.821Z,99069.81
2022-12-08T03:36:08.422Z,99061.41
2022-12-08T03:38:45.781Z,99065.63
2022-12-08T03:41:19.151Z,99063.09
2022-12-08T03:43:53.514Z,99063.94
2022-12-08T03:48:49.094Z,99054.69
2022-12-08T03:51:16.789Z,99058.03
2022-12-08T03:53:43.906Z,99048.78
2022-12-08T03:56:33.876Z,99044.63
2022-12-08T03:59:00.781Z,99047.97
2022-12-08T04:01:28.390Z,99052.19
2022-12-08T04:03:55.322Z,99037.91
2022-12-08T04:06:22.979Z,99032.84
2022-12-08T04:08:50.891Z,99040.41
2022-12-08T04:11:19.249Z,99036.19
2022-12-08T04:13:46.947Z,99035.38
2022-12-08T04:16:24.845Z,99028.63
2022-12-08T04:18:52.498Z,99037.06
2022-12-08T04:21:19.403Z,99033.72
2022-12-08T04:23:46.778Z,99027.84
2022-12-08T04:26:14.621Z,99030.34
2022-12-08T04:28:41.476Z,99031.16
2022-12-08T04:31:08.499Z,99026.97
2022-12-08T04:33:35.523Z,99020.25
2022-12-08T04:36:04.707Z,99026.13
2022-12-08T04:38:31.590Z,99029.50
2022-12-08T04:40:58.504Z,99027.84
2022-12-08T04:43:25.558Z,99028.66
2022-12-08T04:45:52.346Z,99025.31
2022-12-08T04:48:19.178Z,99025.31
2022-12-08T04:50:46.425Z,99022.78
2022-12-08T04:53:14.530Z,99022.75
2022-12-08T04:55:45.007Z,99022.75
2022-12-08T04:58:18.217Z,99021.94
2022-12-08T05:00:46.919Z,99020.25
2022-12-08T05:03:15.182Z,99015.22
2022-12-08T05:05:42.895Z,99015.22
2022-12-08T05:08:10.958Z,99017.75
2022-12-08T05:10:38.087Z,99016.88
2022-12-08T05:13:04.966Z,99021.09
2022-12-08T05:15:31.714Z,99021.94
2022-12-08T05:17:58.502Z,99016.06
2022-12-08T05:20:25.240Z,99015.22
2022-12-08T05:22:51.957Z,99009.34
2022-12-08T05:25:18.674Z,99006.81
2022-12-08T05:27:45.420Z,99007.66
2022-12-08T05:30:12.388Z,99000.94
2022-12-08T05:32:39.229Z,99000.94
2022-12-08T05:35:06.944Z,99000.06
2022-12-08T05:37:33.866Z,99000.06
2022-12-08T05:40:00.881Z,99002.59
2022-12-08T05:42:27.627Z,99001.78
2022-12-08T05:44:54.317Z,98992.53
2022-12-08T05:47:21.032Z,98993.38
2022-12-08T05:49:47.774Z,98985.00
2022-12-08T05:52:16.782Z,98997.59
2022-12-08T05:54:44.017Z,98993.38
2022-12-08T05:57:10.766Z,98988.31
2022-12-08T05:59:38.314Z,98985.81
2022-12-08T06:02:05.122Z,98978.25
2022-12-08T06:04:32.244Z,98990.84
2022-12-08T06:06:59.058Z,98988.34
2022-12-08T06:09:25.809Z,98992.53
2022-12-08T06:11:52.553Z,98997.56
2022-12-08T06:14:19.301Z,99005.13
2022-12-08T06:16:46.132Z,98994.22
2022-12-08T06:19:13.404Z,98987.50
2022-12-08T06:21:40.182Z,98990.03
2022-12-08T06:24:07.189Z,98995.88
2022-12-08T06:26:35.951Z,98989.16
2022-12-08T06:29:02.830Z,98990.84
2022-12-08T06:31:29.681Z,98995.06
2022-12-08T06:33:56.667Z,98995.91
2022-12-08T06:36:27.733Z,98984.97
2022-12-08T06:38:55.063Z,98997.59
2022-12-08T06:41:22.026Z,98985.81
2022-12-08T06:43:48.906Z,98988.34
2022-12-08T06:46:19.201Z,98984.13
2022-12-08T06:48:46.444Z,98986.66
2022-12-08T06:51:19.866Z,98987.50
2022-12-08T06:53:47.123Z,98985.81
2022-12-08T06:56:16.135Z,98986.66
2022-12-08T06:58:46.049Z,98982.44
2022-12-08T07:01:17.486Z,98989.19
2022-12-08T07:03:44.482Z,98985.81
2022-12-08T07:06:18.130Z,98983.28
2022-12-08T07:08:45.135Z,98992.53
2022-12-08T07:11:18.099Z,98990.00
2022-12-08T07:13:48.155Z,98996.72
2022-12-08T07:16:15.142Z,98988.31
2022-12-08T07:18:42.917Z,98995.88
2022-12-08T07:21:17.204Z,99008.47
2022-12-08T07:23:50.241Z,98995.88
2022-12-08T07:26:20.974Z,99011.81
2022-12-08T07:28:47.706Z,98997.56
2022-12-08T07:31:21.930Z,99006.78
2022-12-08T07:33:50.199Z,98998.41
2022-12-08T07:36:17.006Z,99005.94
2022-12-08T07:38:44.183Z,99012.66
2022-12-08T07:41:23.166Z,99004.28
2022-12-08T07:43:51.155Z,98999.25
2022-12-08T07:46:22.394Z,98999.25
2022-12-08T07:48:49.754Z,99000.91
2022-12-08T07:51:17.443Z,99005.13
2022-12-08T07:53:53.161Z,99010.16
2022-12-08T07:56:21.497Z,99015.19
2022-12-08T07:58:48.246Z,99007.63
2022-12-08T08:01:28.627Z,99010.16
2022-12-08T08:04:01.839Z,99011.81
2022-12-08T08:06:28.926Z,99009.28
2022-12-08T08:09:28.438Z,99000.88
2022-12-08T08:12:46.529Z,99007.59
2022-12-08T08:15:13.617Z,99001.69
2022-12-08T08:17:40.911Z,99005.91
2022-12-08T08:20:08.711Z,99011.75
2022-12-08T08:22:36.321Z,99014.28
2022-12-08T08:25:03.775Z,99013.44
2022-12-08T08:27:30.520Z,99018.47
2022-12-08T08:29:57.295Z,99014.28
2022-12-08T08:32:24.022Z,99014.28
2022-12-08T08:34:51.767Z,99017.66
2022-12-08T08:37:20.562Z,99015.97
2022-12-08T08:39:48.085Z,99013.47
2022-12-08T08:42:14.842Z,99020.19
2022-12-08T08:44:41.648Z,99021.03
2022-12-08T08:47:08.953Z,99021.03
2022-12-08T08:49:42.684Z,99018.53
2022-12-08T08:52:37.879Z,99026.06
2022-12-08T08:56:23.194Z,99017.69
2022-12-08T08:58:52.616Z,99025.22
2022-12-08T09:01:31.657Z,99020.19
2022-12-08T09:03:58.637Z,99013.50
2022-12-08T09:06:27.998Z,99006.78
2022-12-08T09:08:54.926Z,99011.81
2022-12-08T09:11:23.350Z,99009.31
2022-12-08T09:13:52.301Z,99006.81
2022-12-08T09:16:19.869Z,99006.81
2022-12-08T09:18:49.208Z,99000.09
2022-12-08T09:21:23.089Z,99004.28
2022-12-08T09:23:53.269Z,98998.41
2022-12-08T09:26:22.341Z,99005.13
2022-12-08T09:28:51.039Z,98994.22
2022-12-08T09:31:21.066Z,98990.84
2022-12-08T09:33:51.513Z,98991.72
2022-12-08T09:36:18.925Z,98990.88
2022-12-08T09:38:46.882Z,98990.88
2022-12-08T09:41:39.227Z,98992.56
2022-12-08T09:44:45.653Z,98994.25
2022-12-08T09:48:04.920Z,98994.22
2022-12-08T09:50:58.074Z,98991.69
2022-12-08T09:53:52.139Z,98988.34
2022-12-08T09:56:25.371Z,98987.47
2022-12-08T09:59:27.237Z,98989.16
2022-12-08T10:01:55.276Z,98979.94
2022-12-08T10:04:33.934Z,98979.94
2022-12-08T10:07:16.621Z,98974.03
2022-12-08T10:09:58.893Z,98974.88
2022-12-08T10:12:54.936Z,98974.03
2022-12-08T10:15:36.645Z,98964.75
2022-12-08T10:18:16.958Z,98970.66
2022-12-08T10:20:48.110Z,98969.78
2022-12-08T10:23:34.923Z,98962.22
2022-12-08T10:26:06.618Z,98958.00
2022-12-08T10:28:38.808Z,98954.66
2022-12-08T10:31:22.144Z,98958.81
2022-12-08T10:33:58.889Z,98950.41
2022-12-08T10:36:50.133Z,98948.69
2022-12-08T10:39:43.635Z,98960.44
2022-12-08T10:42:21.933Z,98946.97
2022-12-08T10:45:04.384Z,98939.38
2022-12-08T10:47:44.893Z,98938.50
2022-12-08T10:50:29.277Z,98938.41
2022-12-08T10:53:23.571Z,98935.91
2022-12-08T10:56:07.905Z,98930.84
2022-12-08T10:58:43.675Z,98928.25
2022-12-08T11:01:26.244Z,98924.91
2022-12-08T11:04:03.835Z,98910.53
2022-12-08T11:06:34.771Z,98919.78
2022-12-08T11:09:04.523Z,98911.34
2022-12-08T11:11:45.923Z,98910.47
2022-12-08T11:14:44.518Z,98906.25
2022-12-08T11:17:26.934Z,98904.50
2022-12-08T11:20:23.091Z,98899.44
2022-12-08T11:22:55.439Z,98907.00
2022-12-08T11:25:29.203Z,98906.97
2022-12-08T11:28:01.868Z,98913.69
2022-12-08T11:30:37.683Z,98901.84
2022-12-08T11:33:25.238Z,98897.59
2022-12-08T11:36:03.659Z,98900.97
2022-12-08T11:38:33.770Z,98898.38
2022-12-08T11:41:16.343Z,98889.94
2022-12-08T11:44:37.789Z,98894.13
2022-12-08T11:47:25.233Z,98894.16
2022-12-08T11:50:03.941Z,98887.41
2022-12-08T11:52:45.601Z,98878.13
2022-12-08T11:55:42.713Z,98873.03
2022-12-08T11:58:18.528Z,98876.41
2022-12-08T12:00:45.735Z,98873.88
2022-12-08T12:03:29.842Z,98871.31
2022-12-08T12:06:58.077Z,98873.03
2022-12-08T12:09:59.864Z,98870.50
2022-12-08T12:12:31.629Z,98857.06
2022-12-08T12:15:40.356Z,98861.28
2022-12-08T12:18:31.801Z,98863.00
2022-12-08T12:21:44.627Z,98864.75
2022-12-08T12:24:36.021Z,98868.13
2022-12-08T12:27:22.941Z,98863.13
2022-12-08T12:29:59.871Z,98850.53
2022-12-08T12:32:41.466Z,98848.03
2022-12-08T12:35:36.723Z,98852.25
2022-12-08T12:38:38.076Z,98854.00
2022-12-08T12:41:18.714Z,98850.66
2022-12-08T12:44:13.640Z,98847.34
2022-12-08T12:46:46.139Z,98852.41
2022-12-08T12:49:37.889Z,98838.13
2022-12-08T12:52:17.017Z,98841.50
2022-12-08T12:55:10.716Z,98832.22
2022-12-08T12:57:49.690Z,98825.50
2022-12-08T13:00:27.050Z,98833.88
2022-12-08T13:02:58.418Z,98843.09
2022-12-08T13:05:36.741Z,98840.56
2022-12-08T13:08:23.729Z,98843.03
2022-12-08T13:11:09.062Z,98834.63
2022-12-08T13:14:04.660Z,98834.56
2022-12-08T13:16:36.100Z,98826.94
2022-12-08T13:19:14.195Z,98831.94
2022-12-08T13:21:47.252Z,98837.78
2022-12-08T13:24:29.064Z,98835.22
2022-12-08T13:27:04.648Z,98829.31
2022-12-08T13:29:33.545Z,98830.94
2022-12-08T13:32:01.701Z,98821.66
2022-12-08T13:34:41.915Z,98824.19
2022-12-08T13:37:21.920Z,98823.34
2022-12-08T13:40:20.814Z,98822.53
2022-12-08T13:43:47.288Z,98821.69
2022-12-08T13:51:16.142Z,98815.06
2022-12-08T13:53:49.338Z,98810.91
2022-12-08T13:58:47.258Z,98813.50
2022-12-08T14:01:24.192Z,98813.50
2022-12-08T14:06:48.588Z,98821.09
2022-12-08T14:09:27.169Z,98817.72
2022-12-08T14:12:06.069Z,98812.69
2022-12-08T14:15:02.380Z,98827.06
2022-12-08T14:17:30.487Z,98820.38
2022-12-08T14:20:19.408Z,98819.56
2022-12-08T14:22:46.766Z,98827.22
2022-12-08T14:25:18.311Z,98822.25
2022-12-08T14:27:51.054Z,98824.00
2022-12-08T14:30:26.647Z,98822.34
2022-12-08T14:33:00.336Z,98824.06
2022-12-08T14:35:37.907Z,98823.31
2022-12-08T14:38:17.133Z,98819.13
2022-12-08T14:40:48.622Z,98818.34
2022-12-08T14:43:20.410Z,98828.47
2022-12-08T14:45:50.545Z,98828.53
2022-12-08T14:48:38.994Z,98831.09
2022-12-08T14:51:21.094Z,98835.31
2022-12-08T14:54:13.839Z,98829.44
2022-12-08T14:56:51.636Z,98825.28
2022-12-08T14:59:23.070Z,98821.09
2022-12-08T15:01:53.578Z,98818.63
2022-12-08T15:04:28.662Z,98831.25
2022-12-08T15:07:07.239Z,98824.53
2022-12-08T15:09:48.687Z,98826.25
2022-12-08T15:12:15.436Z,98825.44
2022-12-08T15:15:17.539Z,98823.75
2022-12-08T15:18:02.429Z,98826.28
2022-12-08T15:20:51.690Z,98821.28
2022-12-08T15:23:27.817Z,98816.25
2022-12-08T15:25:55.860Z,98815.44
2022-12-08T15:28:30.313Z,98812.94
2022-12-08T15:30:58.291Z,98820.50
2022-12-08T15:33:25.805Z,98813.78
2022-12-08T15:35:53.497Z,98818.81
2022-12-08T15:38:28.592Z,98808.72
2022-12-08T15:40:58.622Z,98816.28
2022-12-08T15:43:25.790Z,98817.94
2022-12-08T15:45:59.500Z,98820.44
2022-12-08T15:48:30.130Z,98819.59
2022-12-08T15:50:58.528Z,98815.44
2022-12-08T15:53:25.682Z,98812.91
2022-12-08T15:56:25.854Z,98814.56
2022-12-08T15:58:55.994Z,98815.41
2022-12-08T16:01:23.967Z,98826.25
2022-12-08T16:09:40.542Z,98822.06
2022-12-08T16:16:00.637Z,98822.00
2022-12-08T16:18:33.224Z,98817.81
2022-12-08T16:21:41.912Z,98811.91
2022-12-08T16:23:47.996Z,98808.59
2022-12-08T16:29:07.805Z,98806.88
2022-12-08T16:31:34.938Z,98801.84
2022-12-08T16:34:01.784Z,98811.03
2022-12-08T16:36:28.558Z,98815.22
2022-12-08T16:38:55.294Z,98810.16
2022-12-08T16:41:40.775Z,98810.16
2022-12-08T16:44:07.504Z,98811.81
2022-12-08T16:46:35.912Z,98819.34
2022-12-08T16:49:03.377Z,98823.50
2022-12-08T16:51:30.092Z,98825.19
2022-12-08T16:53:59.528Z,98821.00
2022-12-08T16:56:32.577Z,98814.28
2022-12-08T16:59:00.212Z,98810.09
2022-12-08T17:01:27.199Z,98821.00
2022-12-08T17:04:29.060Z,98814.28
2022-12-08T17:06:40.791Z,98810.94
2022-12-08T17:09:07.585Z,98816.81
2022-12-08T17:11:39.305Z,98817.63
2022-12-08T17:14:09.725Z,98817.63
2022-12-08T17:16:36.497Z,98816.81
2022-12-08T17:19:03.380Z,98822.69
2022-12-08T17:21:30.254Z,98824.34
2022-12-08T17:23:56.983Z,98818.50
2022-12-08T17:26:24.035Z,98826.84
2022-12-08T17:29:06.303Z,98833.56
2022-12-08T17:31:33.605Z,98817.63
2022-12-08T17:34:02.903Z,98820.97
2022-12-08T17:36:30.103Z,98823.47
2022-12-08T17:39:00.389Z,98807.53
2022-12-08T17:41:27.848Z,98815.94
2022-12-08T17:43:55.222Z,98815.94
2022-12-08T17:46:23.223Z,98810.91
2022-12-08T17:48:50.398Z,98820.13
2022-12-08T17:51:17.696Z,98815.94
2022-12-08T17:53:44.680Z,98813.44
2022-12-08T17:56:19.062Z,98810.94
2022-12-08T17:58:51.312Z,98808.44
2022-12-08T18:01:22.664Z,98810.94
2022-12-08T18:03:49.878Z,98805.09
2022-12-08T18:06:17.616Z,98801.78
2022-12-08T18:08:44.959Z,98820.19
2022-12-08T18:11:19.277Z,98809.31
2022-12-08T18:13:48.544Z,98819.34
2022-12-08T18:16:18.617Z,98820.19
2022-12-08T18:18:45.408Z,98817.66
2022-12-08T18:21:12.259Z,98819.34
2022-12-08T18:23:42.847Z,98822.72
2022-12-08T18:26:13.709Z,98821.91
2022-12-08T18:28:41.788Z,98809.34
2022-12-08T18:31:19.364Z,98811.84
2022-12-08T18:33:48.143Z,98811.88
2022-12-08T18:36:25.899Z,98811.88
2022-12-08T18:38:53.698Z,98810.22
2022-12-08T18:41:25.649Z,98816.91
2022-12-08T18:43:54.154Z,98814.41
2022-12-08T18:46:21.705Z,98816.09
2022-12-08T18:48:51.625Z,98821.13
2022-12-08T18:51:22.360Z,98813.56
2022-12-08T18:53:50.116Z,98806.88
2022-12-08T18:56:31.612Z,98810.25
2022-12-08T18:59:05.237Z,98805.22
2022-12-08T19:01:37.524Z,98814.41
2022-12-08T19:06:57.491Z,98813.56
2022-12-08T19:09:26.583Z,98814.41
2022-12-08T19:11:53.475Z,98808.53
2022-12-08T19:14:27.233Z,98809.34
2022-12-08T19:16:54.893Z,98813.53
2022-12-08T19:19:21.699Z,98825.25
2022-12-08T19:21:48.475Z,98815.19
2022-12-08T19:24:15.507Z,98822.72
2022-12-08T19:26:42.652Z,98817.66
2022-12-08T19:29:10.325Z,98817.66
2022-12-08T19:31:38.196Z,98822.69
2022-12-08T19:34:09.160Z,98823.56
2022-12-08T19:36:42.013Z,98821.88
2022-12-08T19:39:34.374Z,98819.34
2022-12-08T19:42:19.988Z,98818.53
2022-12-08T19:44:52.885Z,98825.25
2022-12-08T19:47:26.114Z,98820.22
2022-12-08T19:49:55.059Z,98821.91
2022-12-08T19:52:22.892Z,98817.72
2022-12-08T19:54:49.693Z,98818.56
2022-12-08T19:57:16.491Z,98820.25
2022-12-08T19:59:43.319Z,98821.13
2022-12-08T20:02:11.352Z,98820.25
2022-12-08T20:04:38.198Z,98821.13
2022-12-08T20:07:04.945Z,98821.13
2022-12-08T20:09:31.691Z,98821.94
2022-12-08T20:11:58.413Z,98813.56
2022-12-08T20:14:25.330Z,98811.91
2022-12-08T20:16:52.157Z,98811.91
2022-12-08T20:19:19.262Z,98817.81
2022-12-08T20:21:46.067Z,98818.63
2022-12-08T20:24:12.870Z,98821.19
2022-12-08T20:26:39.702Z,98823.69
2022-12-08T20:29:06.550Z,98822.03
2022-12-08T20:31:33.965Z,98821.16
2022-12-08T20:34:01.299Z,98818.66
2022-12-08T20:36:28.944Z,98819.53
2022-12-08T20:38:56.233Z,98819.53
2022-12-08T20:41:23.703Z,98819.50
2022-12-08T20:43:51.794Z,98820.38
2022-12-08T20:46:21.183Z,98811.16
2022-12-08T20:48:48.503Z,98814.50
2022-12-08T20:51:19.367Z,98808.63
2022-12-08T20:53:47.561Z,98812.84
2022-12-08T20:56:20.611Z,98799.41
2022-12-08T20:58:48.289Z,98807.78
2022-12-08T21:01:21.582Z,98805.28
2022-12-08T21:03:49.278Z,98805.25
2022-12-08T21:06:21.049Z,98813.66
2022-12-08T21:08:48.464Z,98810.28
2022-12-08T21:11:15.643Z,98801.06
2022-12-08T21:13:43.236Z,98809.44
2022-12-08T21:16:13.768Z,98803.56
2022-12-08T21:18:41.614Z,98805.25
2022-12-08T21:21:14.327Z,98803.56
2022-12-08T21:23:44.731Z,98804.41
2022-12-08T21:26:18.438Z,98815.28
2022-12-08T21:28:45.940Z,98805.25
2022-12-08T21:31:18.967Z,98799.38
2022-12-08T21:33:46.151Z,98794.38
2022-12-08T21:36:17.458Z,98796.03
2022-12-08T21:38:46.486Z,98790.16
2022-12-08T21:41:40.912Z,98796.03
2022-12-08T21:44:11.897Z,98796.03
2022-12-08T21:46:39.010Z,98797.69
2022-12-08T21:49:06.380Z,98795.19
2022-12-08T21:51:35.053Z,98796.03
2022-12-08T21:54:01.945Z,98798.56
2022-12-08T21:56:28.917Z,98798.53
2022-12-08T21:58:55.907Z,98804.41
2022-12-08T22:01:22.807Z,98806.94
2022-12-08T22:03:50.125Z,98804.41
2022-12-08T22:06:17.677Z,98814.44
2022-12-08T22:08:44.790Z,98811.91
2022-12-08T22:11:12.087Z,98811.09
2022-12-08T22:13:41.332Z,98817.78
2022-12-08T22:16:12.329Z,98816.94
2022-12-08T22:18:39.332Z,98806.03
2022-12-08T22:21:16.115Z,98814.41
2022-12-08T22:23:44.545Z,98812.72
2022-12-08T22:26:12.714Z,98806.00
2022-12-08T22:28:42.961Z,98809.31
2022-12-08T22:31:20.928Z,98807.63
2022-12-08T22:33:50.229Z,98802.56
2022-12-08T22:36:21.746Z,98800.88
2022-12-08T22:38:49.683Z,98803.34
2022-12-08T22:41:18.158Z,98802.50
2022-12-08T22:43:46.314Z,98799.09
2022-12-08T22:46:18.702Z,98804.94
2022-12-08T22:48:45.833Z,98804.94
2022-12-08T22:51:13.300Z,98804.94
2022-12-08T22:53:40.640Z,98802.38
2022-12-08T22:56:10.981Z,98800.69
2022-12-08T22:58:39.983Z,98802.31
2022-12-08T23:01:08.496Z,98799.81
2022-12-08T23:03:35.691Z,98800.63
2022-12-08T23:06:11.975Z,98803.13
2022-12-08T23:08:38.902Z,98793.06
2022-12-08T23:11:05.929Z,98794.72
2022-12-08T23:13:32.790Z,98794.69
2022-12-08T23:15:59.472Z,98790.47
2022-12-08T23:18:26.172Z,98804.66
2022-12-08T23:20:52.856Z,98799.63
2022-12-08T23:23:19.682Z,98804.63
2022-12-08T23:25:46.468Z,98802.09
2022-12-08T23:28:13.245Z,98803.72
2022-12-08T23:30:41.039Z,98800.38
2022-12-08T23:33:08.386Z,98799.50
2022-12-08T23:35:35.363Z,98797.81
2022-12-08T23:38:02.111Z,98792.75
2022-12-08T23:40:28.889Z,98791.03
2022-12-08T23:42:55.638Z,98787.69
2022-12-08T23:45:22.681Z,98784.31
2022-12-08T23:47:49.531Z,98785.97
2022-12-08T23:50:16.499Z,98785.97
2022-12-08T23:52:43.579Z,98781.72
2022-12-08T23:55:11.179Z,98778.38
2022-12-08T23:57:38.627Z,98777.56
